createdAt,value
2019-03-29T00:00:12.537Z,94.90
2019-03-29T00:02:43.873Z,94.90
2019-03-29T00:05:14.992Z,94.90
2019-03-29T00:07:46.200Z,94.90
2019-03-29T00:10:17.347Z,94.90
2019-03-29T00:12:48.535Z,95.00
2019-03-29T00:15:19.740Z,94.90
2019-03-29T00:17:50.877Z,95.00
2019-03-29T00:20:22.020Z,95.00
2019-03-29T00:22:54.421Z,95.00
2019-03-29T00:25:25.605Z,95.00
2019-03-29T00:27:56.765Z,95.00
2019-03-29T00:30:27.927Z,95.10
2019-03-29T00:32:59.040Z,95.20
2019-03-29T00:35:30.212Z,95.20
2019-03-29T00:38:01.370Z,95.20
2019-03-29T00:40:33.185Z,95.10
2019-03-29T00:43:05.476Z,95.10
2019-03-29T00:45:36.616Z,95.20
2019-03-29T00:48:07.753Z,95.20
2019-03-29T00:50:38.857Z,95.20
2019-03-29T00:53:11.371Z,95.30
2019-03-29T00:55:42.488Z,95.30
2019-03-29T00:58:13.647Z,95.20
2019-03-29T01:00:44.891Z,95.30
2019-03-29T01:03:16.181Z,95.20
2019-03-29T01:05:47.451Z,95.20
2019-03-29T01:08:18.637Z,95.20
2019-03-29T01:10:50.108Z,95.20
2019-03-29T01:13:21.312Z,95.30
2019-03-29T01:15:52.429Z,95.40
2019-03-29T01:18:23.605Z,95.50
2019-03-29T01:20:54.913Z,95.50
2019-03-29T01:23:26.192Z,95.60
2019-03-29T01:25:57.344Z,95.50
2019-03-29T01:28:28.592Z,95.50
2019-03-29T01:31:00.019Z,95.40
2019-03-29T01:33:31.286Z,95.40
2019-03-29T01:36:02.498Z,95.40
2019-03-29T01:38:33.828Z,95.40
2019-03-29T01:41:05.256Z,95.30
2019-03-29T01:43:42.051Z,95.30
2019-03-29T01:46:09.268Z,95.30
2019-03-29T01:48:40.986Z,95.30
2019-03-29T01:51:12.359Z,95.30
2019-03-29T01:53:43.492Z,95.30
2019-03-29T01:56:14.966Z,95.30
2019-03-29T01:58:46.354Z,95.40
2019-03-29T02:01:17.525Z,95.40
2019-03-29T02:03:49.462Z,95.30
2019-03-29T02:06:20.644Z,95.30
2019-03-29T02:08:51.811Z,95.30
2019-03-29T02:11:22.957Z,95.20
2019-03-29T02:13:54.145Z,95.20
2019-03-29T02:16:25.404Z,95.10
2019-03-29T02:18:57.762Z,95.10
2019-03-29T02:21:31.833Z,95.00
2019-03-29T02:24:03.032Z,95.00
2019-03-29T02:26:34.233Z,95.00
2019-03-29T02:29:06.087Z,95.10
2019-03-29T02:31:41.766Z,95.10
2019-03-29T02:34:10.137Z,95.10
2019-03-29T02:36:41.368Z,95.10
2019-03-29T02:39:12.873Z,95.20
2019-03-29T02:41:44.149Z,95.60
2019-03-29T02:44:15.316Z,95.20
2019-03-29T02:46:46.544Z,95.40
2019-03-29T02:49:17.673Z,95.50
2019-03-29T02:51:48.854Z,95.50
2019-03-29T02:54:20.049Z,95.50
2019-03-29T02:56:51.283Z,95.60
2019-03-29T02:59:22.833Z,95.60
2019-03-29T03:01:54.017Z,95.60
2019-03-29T03:04:25.166Z,95.70
2019-03-29T03:06:56.703Z,95.70
2019-03-29T03:09:28.175Z,95.70
2019-03-29T03:11:59.625Z,95.60
2019-03-29T03:14:30.916Z,96.00
2019-03-29T03:17:02.294Z,95.80
2019-03-29T03:19:35.819Z,95.70
2019-03-29T03:22:07.086Z,95.70
2019-03-29T03:24:38.383Z,95.90
2019-03-29T03:27:09.540Z,96.00
2019-03-29T03:29:47.834Z,96.10
2019-03-29T03:32:16.351Z,96.20
2019-03-29T03:34:47.578Z,96.20
2019-03-29T03:37:18.720Z,96.20
2019-03-29T03:39:50.214Z,96.30
2019-03-29T03:42:21.977Z,96.30
2019-03-29T03:44:53.168Z,96.20
2019-03-29T03:47:24.329Z,96.10
2019-03-29T03:49:55.520Z,96.20
2019-03-29T03:52:26.775Z,96.10
2019-03-29T03:54:58.333Z,96.10
2019-03-29T03:57:30.367Z,96.10
2019-03-29T04:00:02.244Z,96.10
2019-03-29T04:02:33.680Z,96.10
2019-03-29T04:05:05.005Z,96.10
2019-03-29T04:07:36.276Z,96.20
2019-03-29T04:10:07.554Z,96.00
2019-03-29T04:12:38.754Z,96.10
2019-03-29T04:15:10.217Z,96.00
2019-03-29T04:17:41.465Z,95.90
2019-03-29T04:20:12.692Z,96.40
2019-03-29T04:22:43.884Z,96.50
2019-03-29T04:25:15.108Z,96.60
2019-03-29T04:27:46.278Z,96.60
2019-03-29T04:30:17.485Z,96.60
2019-03-29T04:32:48.607Z,96.70
2019-03-29T04:35:19.874Z,96.80
2019-03-29T04:37:51.005Z,97.10
2019-03-29T04:40:22.196Z,97.40
2019-03-29T04:42:53.380Z,97.50
2019-03-29T04:45:24.561Z,97.90
2019-03-29T04:47:55.824Z,98.00
2019-03-29T04:50:26.929Z,98.20
2019-03-29T04:52:58.248Z,98.30
2019-03-29T04:55:29.447Z,98.50
2019-03-29T04:58:00.837Z,98.90
2019-03-29T05:00:32.273Z,99.00
2019-03-29T05:03:03.701Z,99.00
2019-03-29T05:05:34.891Z,99.20
2019-03-29T05:08:06.009Z,99.30
2019-03-29T05:10:39.384Z,99.30
2019-03-29T05:13:10.598Z,99.30
2019-03-29T05:15:41.723Z,99.30
2019-03-29T05:18:12.996Z,99.30
2019-03-29T05:20:44.272Z,99.20
2019-03-29T05:23:15.367Z,99.30
2019-03-29T05:25:46.542Z,99.30
2019-03-29T05:28:17.783Z,99.40
2019-03-29T05:30:49.097Z,99.40
2019-03-29T05:33:20.408Z,99.20
2019-03-29T05:35:53.678Z,99.30
2019-03-29T05:38:24.871Z,99.40
2019-03-29T05:40:56.098Z,99.30
2019-03-29T05:43:27.267Z,99.30
2019-03-29T05:45:58.457Z,99.30
2019-03-29T05:48:29.576Z,99.10
2019-03-29T05:51:00.716Z,98.80
2019-03-29T05:53:31.912Z,98.40
2019-03-29T05:56:03.093Z,98.10
2019-03-29T05:58:34.236Z,97.80
2019-03-29T06:01:05.428Z,97.60
2019-03-29T06:03:36.612Z,96.90
2019-03-29T06:06:07.806Z,97.50
2019-03-29T06:08:38.953Z,94.40
2019-03-29T06:11:10.265Z,90.00
2019-03-29T06:13:41.492Z,82.90
2019-03-29T06:16:12.888Z,76.70
2019-03-29T06:18:46.911Z,71.80
2019-03-29T06:21:18.103Z,66.10
2019-03-29T06:23:49.245Z,62.40
2019-03-29T06:26:20.505Z,59.30
2019-03-29T06:28:51.692Z,55.20
2019-03-29T06:31:21.669Z,52.30
2019-03-29T06:33:51.512Z,51.20
2019-03-29T06:36:22.678Z,49.40
2019-03-29T06:38:53.516Z,46.10
2019-03-29T06:41:23.356Z,44.00
2019-03-29T06:43:53.444Z,42.20
2019-03-29T06:46:23.310Z,40.80
2019-03-29T06:48:53.153Z,38.80
2019-03-29T06:51:24.536Z,36.70
2019-03-29T06:53:54.292Z,35.00
2019-03-29T06:56:25.476Z,34.30
2019-03-29T06:58:55.320Z,33.10
2019-03-29T07:01:25.131Z,31.80
2019-03-29T07:03:57.846Z,30.00
2019-03-29T07:06:30.440Z,29.50
2019-03-29T07:08:59.270Z,28.90
2019-03-29T07:11:29.095Z,28.40
2019-03-29T07:13:59.048Z,28.30
2019-03-29T07:16:28.878Z,28.00
2019-03-29T07:18:58.778Z,27.40
2019-03-29T07:21:28.661Z,26.90
2019-03-29T07:23:58.496Z,26.70
2019-03-29T07:26:28.312Z,25.60
2019-03-29T07:28:58.245Z,24.80
2019-03-29T07:31:28.161Z,24.10
2019-03-29T07:33:57.924Z,24.00
2019-03-29T07:36:29.050Z,23.70
2019-03-29T07:38:58.840Z,23.20
2019-03-29T07:41:32.034Z,23.10
2019-03-29T07:44:00.180Z,21.80
2019-03-29T07:46:29.939Z,22.10
2019-03-29T07:48:59.751Z,22.20
2019-03-29T07:51:29.897Z,21.80
2019-03-29T07:53:59.676Z,21.90
2019-03-29T07:56:29.572Z,21.80
2019-03-29T07:59:02.522Z,21.30
2019-03-29T08:01:32.645Z,20.20
2019-03-29T08:04:02.764Z,20.20
2019-03-29T08:06:33.616Z,20.00
2019-03-29T08:09:04.951Z,20.90
2019-03-29T08:11:45.475Z,19.80
2019-03-29T08:14:06.280Z,20.00
2019-03-29T08:16:36.158Z,19.30
2019-03-29T08:19:05.982Z,19.60
2019-03-29T08:21:35.800Z,19.10
2019-03-29T08:24:05.600Z,19.00
2019-03-29T08:26:35.480Z,19.40
2019-03-29T08:29:05.322Z,20.00
2019-03-29T08:31:35.216Z,20.40
2019-03-29T08:34:05.079Z,20.40
2019-03-29T08:36:34.932Z,20.40
2019-03-29T08:39:10.080Z,20.60
2019-03-29T08:41:38.907Z,20.20
2019-03-29T08:44:11.669Z,19.60
2019-03-29T08:46:40.380Z,20.10
2019-03-29T08:49:11.586Z,19.30
2019-03-29T08:51:41.717Z,19.10
2019-03-29T08:54:11.783Z,18.90
2019-03-29T08:56:41.594Z,18.40
2019-03-29T08:59:11.471Z,18.50
2019-03-29T09:01:41.447Z,17.90
2019-03-29T09:04:11.368Z,17.40
2019-03-29T09:06:52.433Z,18.10
2019-03-29T09:09:13.323Z,18.00
2019-03-29T09:11:43.231Z,18.20
2019-03-29T09:14:13.102Z,18.30
2019-03-29T09:16:43.292Z,18.30
2019-03-29T09:19:13.185Z,18.10
2019-03-29T09:21:43.443Z,17.60
2019-03-29T09:24:21.713Z,17.80
2019-03-29T09:26:45.180Z,17.20
2019-03-29T09:29:15.132Z,17.00
2019-03-29T09:31:45.147Z,17.40
2019-03-29T09:34:15.422Z,17.60
2019-03-29T09:36:45.624Z,17.00
2019-03-29T09:39:15.891Z,16.80
2019-03-29T09:41:46.837Z,16.60
2019-03-29T09:44:16.705Z,16.40
2019-03-29T09:46:46.531Z,17.50
2019-03-29T09:49:16.500Z,18.60
2019-03-29T09:51:46.329Z,19.90
2019-03-29T09:54:16.128Z,18.80
2019-03-29T09:56:48.379Z,17.80
2019-03-29T09:59:17.521Z,17.10
2019-03-29T10:01:47.692Z,16.40
2019-03-29T10:04:17.545Z,16.60
2019-03-29T10:06:47.401Z,18.30
2019-03-29T10:09:18.705Z,19.10
2019-03-29T10:11:48.600Z,18.30
2019-03-29T10:14:18.466Z,17.00
2019-03-29T10:16:48.238Z,16.00
2019-03-29T10:19:18.047Z,15.40
2019-03-29T10:21:50.815Z,15.20
2019-03-29T10:24:22.328Z,15.70
2019-03-29T10:26:52.247Z,15.50
2019-03-29T10:29:22.343Z,14.80
2019-03-29T10:31:52.196Z,15.60
2019-03-29T10:34:22.173Z,15.00
2019-03-29T10:36:52.127Z,15.20
2019-03-29T10:39:22.052Z,15.20
2019-03-29T10:41:52.017Z,15.00
2019-03-29T10:44:21.900Z,14.80
2019-03-29T10:46:51.788Z,14.60
2019-03-29T10:49:21.561Z,14.20
2019-03-29T10:51:51.518Z,14.40
2019-03-29T10:54:21.559Z,14.30
2019-03-29T10:56:51.364Z,14.20
2019-03-29T10:59:27.351Z,13.80
2019-03-29T11:01:52.692Z,14.00
2019-03-29T11:04:22.445Z,14.20
2019-03-29T11:06:52.241Z,14.40
2019-03-29T11:09:22.025Z,16.00
2019-03-29T11:11:51.859Z,16.80
2019-03-29T11:14:21.693Z,17.30
2019-03-29T11:16:52.794Z,17.10
2019-03-29T11:19:23.969Z,17.90
2019-03-29T11:21:55.170Z,17.50
2019-03-29T11:24:26.380Z,18.30
2019-03-29T11:26:57.693Z,19.20
2019-03-29T11:29:29.117Z,19.80
2019-03-29T11:32:00.349Z,19.70
2019-03-29T11:34:31.607Z,21.30
2019-03-29T11:37:02.750Z,22.50
2019-03-29T11:39:33.913Z,23.30
2019-03-29T11:42:05.146Z,23.10
2019-03-29T11:44:36.481Z,23.90
2019-03-29T11:47:07.797Z,26.00
2019-03-29T11:49:39.110Z,29.70
2019-03-29T11:52:10.575Z,33.00
2019-03-29T11:54:41.820Z,35.80
2019-03-29T11:57:13.309Z,37.80
2019-03-29T11:59:44.445Z,39.80
2019-03-29T12:02:30.162Z,41.20
2019-03-29T12:04:48.441Z,42.50
2019-03-29T12:07:19.621Z,44.00
2019-03-29T12:09:50.780Z,43.60
2019-03-29T12:12:21.997Z,42.50
2019-03-29T12:14:53.184Z,42.90
2019-03-29T12:17:24.430Z,43.60
2019-03-29T12:19:55.618Z,44.50
2019-03-29T12:22:26.836Z,43.80
2019-03-29T12:24:58.097Z,44.10
2019-03-29T12:27:29.276Z,45.00
2019-03-29T12:30:03.151Z,45.70
2019-03-29T12:32:34.308Z,46.10
2019-03-29T12:35:09.748Z,45.50
2019-03-29T12:37:39.556Z,45.10
2019-03-29T12:40:11.681Z,44.90
2019-03-29T12:42:43.232Z,45.40
2019-03-29T12:45:14.566Z,45.10
2019-03-29T12:47:45.844Z,45.10
2019-03-29T12:50:17.139Z,45.20
2019-03-29T12:52:48.355Z,47.50
2019-03-29T12:55:19.553Z,47.80
2019-03-29T12:57:50.705Z,48.50
2019-03-29T13:00:23.795Z,48.40
2019-03-29T13:02:55.004Z,48.40
2019-03-29T13:05:26.146Z,48.10
2019-03-29T13:07:57.561Z,47.20
2019-03-29T13:10:28.770Z,46.80
2019-03-29T13:13:00.715Z,47.00
2019-03-29T13:15:32.839Z,47.40
2019-03-29T13:18:04.167Z,47.80
2019-03-29T13:20:35.493Z,47.80
2019-03-29T13:23:06.815Z,47.90
2019-03-29T13:25:38.021Z,48.10
2019-03-29T13:28:09.239Z,48.90
2019-03-29T13:30:40.560Z,49.10
2019-03-29T13:33:11.713Z,47.40
2019-03-29T13:35:44.566Z,47.70
2019-03-29T13:38:16.127Z,47.80
2019-03-29T13:40:47.362Z,48.30
2019-03-29T13:43:18.525Z,48.60
2019-03-29T13:45:49.812Z,49.00
2019-03-29T13:48:21.132Z,48.60
2019-03-29T13:50:52.389Z,48.00
2019-03-29T13:53:23.673Z,48.00
2019-03-29T13:55:54.915Z,47.90
2019-03-29T13:58:26.020Z,48.10
2019-03-29T14:00:57.857Z,48.40
2019-03-29T14:03:29.050Z,48.30
2019-03-29T14:06:00.304Z,48.40
2019-03-29T14:08:31.545Z,48.60
2019-03-29T14:11:02.971Z,49.80
2019-03-29T14:13:34.251Z,49.30
2019-03-29T14:16:05.553Z,50.20
2019-03-29T14:18:36.737Z,50.00
2019-03-29T14:21:07.962Z,50.20
2019-03-29T14:23:39.313Z,48.90
2019-03-29T14:26:10.624Z,48.90
2019-03-29T14:28:41.805Z,48.90
2019-03-29T14:31:13.081Z,48.40
2019-03-29T14:33:44.339Z,48.40
2019-03-29T14:36:15.654Z,48.30
2019-03-29T14:38:46.933Z,48.80
2019-03-29T14:41:18.217Z,48.60
2019-03-29T14:43:49.664Z,49.10
2019-03-29T14:46:20.830Z,49.20
2019-03-29T14:48:52.287Z,50.20
2019-03-29T14:51:23.566Z,50.50
2019-03-29T14:53:57.617Z,50.90
2019-03-29T14:56:29.092Z,50.70
2019-03-29T14:59:00.357Z,51.00
2019-03-29T15:01:31.737Z,51.50
2019-03-29T15:04:03.017Z,52.30
2019-03-29T15:06:34.405Z,51.10
2019-03-29T15:09:07.351Z,51.10
2019-03-29T15:11:38.495Z,50.60
2019-03-29T15:14:09.744Z,50.90
2019-03-29T15:16:40.950Z,51.30
2019-03-29T15:19:13.477Z,51.60
2019-03-29T15:21:45.942Z,51.60
2019-03-29T15:24:17.609Z,51.80
2019-03-29T15:26:48.908Z,52.60
2019-03-29T15:29:20.181Z,52.30
2019-03-29T15:31:51.612Z,52.50
2019-03-29T15:34:23.332Z,52.40
2019-03-29T15:36:54.598Z,52.80
2019-03-29T15:39:26.257Z,52.70
2019-03-29T15:41:57.484Z,52.80
2019-03-29T15:44:28.699Z,53.00
2019-03-29T15:46:59.921Z,53.10
2019-03-29T15:49:31.117Z,53.20
2019-03-29T15:52:02.461Z,53.60
2019-03-29T15:54:33.822Z,53.80
2019-03-29T15:57:07.826Z,54.00
2019-03-29T15:59:38.062Z,53.90
2019-03-29T16:02:09.386Z,54.10
2019-03-29T16:04:40.596Z,54.10
2019-03-29T16:07:12.257Z,54.20
2019-03-29T16:09:43.666Z,55.20
2019-03-29T16:12:15.024Z,55.60
2019-03-29T16:14:46.392Z,55.00
2019-03-29T16:17:17.616Z,55.10
2019-03-29T16:19:49.752Z,56.20
2019-03-29T16:22:21.089Z,57.10
2019-03-29T16:24:52.381Z,57.50
2019-03-29T16:27:25.231Z,57.60
2019-03-29T16:29:56.793Z,57.80
2019-03-29T16:32:28.129Z,57.90
2019-03-29T16:34:59.408Z,57.90
2019-03-29T16:37:30.660Z,57.30
2019-03-29T16:40:01.900Z,57.60
2019-03-29T16:42:33.119Z,57.80
2019-03-29T16:45:05.062Z,58.30
2019-03-29T16:47:36.443Z,58.90
2019-03-29T16:50:08.943Z,58.90
2019-03-29T16:52:40.181Z,59.10
2019-03-29T16:55:14.403Z,59.30
2019-03-29T16:57:45.785Z,58.80
2019-03-29T17:00:20.305Z,58.90
2019-03-29T17:02:51.516Z,59.20
2019-03-29T17:05:23.112Z,59.20
2019-03-29T17:07:54.360Z,59.30
2019-03-29T17:10:25.549Z,59.50
2019-03-29T17:12:56.819Z,59.70
2019-03-29T17:15:28.074Z,60.20
2019-03-29T17:17:59.394Z,60.20
2019-03-29T17:20:30.677Z,60.20
2019-03-29T17:23:01.874Z,60.20
2019-03-29T17:25:33.064Z,60.20
2019-03-29T17:28:04.475Z,61.00
2019-03-29T17:30:39.013Z,61.80
2019-03-29T17:33:10.155Z,62.30
2019-03-29T17:35:44.724Z,62.80
2019-03-29T17:38:16.010Z,63.00
2019-03-29T17:40:47.297Z,63.90
2019-03-29T17:43:18.523Z,64.60
2019-03-29T17:45:49.741Z,65.10
2019-03-29T17:48:20.939Z,65.80
2019-03-29T17:50:52.145Z,66.60
2019-03-29T17:53:24.263Z,67.60
2019-03-29T17:55:56.318Z,68.90
2019-03-29T17:58:30.303Z,70.30
2019-03-29T18:01:01.617Z,71.10
2019-03-29T18:03:34.183Z,72.20
2019-03-29T18:06:05.837Z,72.70
2019-03-29T18:08:37.224Z,73.70
2019-03-29T18:11:09.438Z,74.30
2019-03-29T18:13:40.662Z,74.60
2019-03-29T18:16:12.346Z,75.40
2019-03-29T18:18:43.666Z,75.70
2019-03-29T18:21:14.997Z,76.50
2019-03-29T18:23:46.497Z,76.90
2019-03-29T18:26:20.474Z,77.10
2019-03-29T18:28:51.664Z,77.10
2019-03-29T18:31:25.088Z,77.50
2019-03-29T18:33:58.769Z,77.00
2019-03-29T18:36:30.634Z,76.70
2019-03-29T18:39:02.482Z,76.50
2019-03-29T18:41:34.870Z,76.60
2019-03-29T18:44:06.328Z,76.30
2019-03-29T18:46:44.464Z,76.80
2019-03-29T18:49:10.679Z,76.80
2019-03-29T18:51:42.227Z,76.70
2019-03-29T18:54:16.085Z,76.70
2019-03-29T18:56:47.738Z,77.00
2019-03-29T18:59:20.769Z,77.00
2019-03-29T19:01:52.293Z,77.50
2019-03-29T19:04:28.542Z,77.70
2019-03-29T19:06:59.935Z,78.80
2019-03-29T19:09:31.718Z,78.80
2019-03-29T19:12:08.762Z,78.50
2019-03-29T19:14:41.715Z,78.30
2019-03-29T19:17:13.420Z,78.00
2019-03-29T19:19:44.661Z,78.00
2019-03-29T19:22:16.126Z,78.30
2019-03-29T19:24:47.411Z,79.00
2019-03-29T19:27:19.284Z,79.50
2019-03-29T19:29:50.520Z,80.00
2019-03-29T19:32:23.269Z,80.70
2019-03-29T19:34:54.453Z,81.50
2019-03-29T19:37:27.804Z,81.90
2019-03-29T19:39:59.136Z,83.20
2019-03-29T19:42:30.914Z,84.20
2019-03-29T19:45:02.299Z,84.60
2019-03-29T19:47:33.651Z,84.60
2019-03-29T19:50:08.247Z,85.50
2019-03-29T19:52:42.691Z,86.70
2019-03-29T19:55:14.100Z,86.40
2019-03-29T19:57:49.958Z,87.40
2019-03-29T20:00:26.463Z,88.40
2019-03-29T20:02:58.079Z,89.10
2019-03-29T20:05:31.608Z,89.50
2019-03-29T20:08:03.461Z,89.00
2019-03-29T20:10:34.661Z,90.00
2019-03-29T20:13:06.430Z,90.00
2019-03-29T20:15:37.666Z,89.80
2019-03-29T20:18:17.280Z,89.60
2019-03-29T20:20:51.063Z,89.60
2019-03-29T20:23:22.259Z,89.20
2019-03-29T20:25:55.249Z,89.10
2019-03-29T20:28:28.158Z,89.10
2019-03-29T20:30:59.391Z,89.80
2019-03-29T20:33:30.553Z,90.00
2019-03-29T20:36:01.774Z,90.20
2019-03-29T20:38:33.131Z,90.60
2019-03-29T20:41:07.227Z,90.80
2019-03-29T20:43:38.521Z,91.10
2019-03-29T20:46:10.042Z,91.50
2019-03-29T20:48:43.611Z,91.70
2019-03-29T20:51:14.890Z,91.90
2019-03-29T20:53:47.782Z,92.10
2019-03-29T20:56:19.417Z,92.40
2019-03-29T20:58:50.737Z,92.30
2019-03-29T21:01:22.276Z,92.00
2019-03-29T21:03:53.709Z,91.70
2019-03-29T21:06:25.139Z,91.80
2019-03-29T21:08:56.337Z,91.60
2019-03-29T21:11:27.661Z,91.40
2019-03-29T21:14:02.501Z,91.60
2019-03-29T21:16:34.127Z,91.80
2019-03-29T21:19:05.824Z,92.00
2019-03-29T21:21:37.335Z,92.30
2019-03-29T21:24:08.569Z,92.80
2019-03-29T21:26:39.723Z,92.90
2019-03-29T21:29:12.889Z,92.80
2019-03-29T21:31:44.238Z,92.90
2019-03-29T21:34:15.416Z,92.90
2019-03-29T21:36:46.635Z,92.90
2019-03-29T21:39:17.866Z,92.20
2019-03-29T21:41:49.223Z,92.00
2019-03-29T21:44:20.456Z,91.70
2019-03-29T21:46:51.917Z,91.50
2019-03-29T21:49:26.751Z,91.50
2019-03-29T21:51:57.979Z,91.50
2019-03-29T21:54:29.221Z,91.60
2019-03-29T21:57:01.790Z,91.80
2019-03-29T21:59:33.140Z,91.70
2019-03-29T22:02:04.572Z,91.60
2019-03-29T22:04:38.097Z,91.60
2019-03-29T22:07:09.597Z,91.80
2019-03-29T22:09:41.262Z,91.80
2019-03-29T22:12:13.841Z,92.00
2019-03-29T22:14:45.376Z,92.00
2019-03-29T22:17:16.944Z,91.90
2019-03-29T22:19:48.481Z,92.00
2019-03-29T22:22:22.814Z,92.00
2019-03-29T22:24:54.114Z,92.40
2019-03-29T22:27:25.590Z,92.70
2019-03-29T22:29:56.864Z,92.60
2019-03-29T22:32:28.438Z,92.80
2019-03-29T22:34:59.635Z,93.00
2019-03-29T22:37:30.912Z,93.10
2019-03-29T22:40:02.120Z,93.20
2019-03-29T22:42:33.462Z,93.30
2019-03-29T22:45:07.044Z,93.30
2019-03-29T22:47:38.209Z,93.20
2019-03-29T22:50:09.759Z,93.30
2019-03-29T22:52:41.065Z,93.40
2019-03-29T22:55:12.187Z,93.50
2019-03-29T22:57:43.796Z,93.70
2019-03-29T23:00:20.833Z,93.70
2019-03-29T23:02:52.610Z,93.80
2019-03-29T23:05:23.968Z,93.80
2019-03-29T23:07:55.141Z,93.90
2019-03-29T23:10:26.691Z,94.00
2019-03-29T23:12:57.882Z,94.00
2019-03-29T23:15:29.176Z,94.00
2019-03-29T23:18:00.472Z,94.00
2019-03-29T23:20:31.951Z,94.10
2019-03-29T23:23:03.265Z,94.20
2019-03-29T23:25:34.627Z,94.30
2019-03-29T23:28:06.124Z,94.30
2019-03-29T23:30:37.376Z,94.30
2019-03-29T23:33:08.634Z,94.40
2019-03-29T23:35:39.788Z,94.30
2019-03-29T23:38:10.969Z,94.40
2019-03-29T23:40:42.167Z,94.60
2019-03-29T23:43:13.537Z,94.60
2019-03-29T23:45:44.752Z,94.60
2019-03-29T23:48:16.142Z,94.50
2019-03-29T23:50:47.628Z,94.40
2019-03-29T23:53:18.949Z,94.50
2019-03-29T23:55:50.165Z,94.50
2019-03-29T23:58:21.470Z,94.60
